sensor_id;sensor_type;location;lat;lon;timestamp;pressure;altitude;pressure_sealevel;temperature;humidity
24825;BME280;12910;57.690;11.974;2022-09-30T00:00:49;99999.81;;;8.07;100.00
24825;BME280;12910;57.690;11.974;2022-09-30T00:03:15;99995.50;;;8.05;100.00
24825;BME280;12910;57.690;11.974;2022-09-30T00:05:40;99998.91;;;8.04;100.00
24825;BME280;12910;57.690;11.974;2022-09-30T00:08:06;99989.38;;;7.95;100.00
24825;BME280;12910;57.690;11.974;2022-09-30T00:10:31;99999.63;;;7.97;100.00
24825;BME280;12910;57.690;11.974;2022-09-30T00:12:56;99996.22;;;7.96;100.00
24825;BME280;12910;57.690;11.974;2022-09-30T00:15:22;100000.47;;;7.95;100.00
24825;BME280;12910;57.690;11.974;2022-09-30T00:17:48;99996.22;;;7.96;100.00
24825;BME280;12910;57.690;11.974;2022-09-30T00:20:13;100008.97;;;7.96;100.00
24825;BME280;12910;57.690;11.974;2022-09-30T00:22:39;99999.59;;;7.95;100.00
24825;BME280;12910;57.690;11.974;2022-09-30T00:25:04;99993.63;;;7.93;100.00
24825;BME280;12910;57.690;11.974;2022-09-30T00:27:30;100007.25;;;7.95;100.00
24825;BME280;12910;57.690;11.974;2022-09-30T00:29:55;100009.78;;;7.95;100.00
24825;BME280;12910;57.690;11.974;2022-09-30T00:32:20;100000.41;;;7.94;100.00
24825;BME280;12910;57.690;11.974;2022-09-30T00:34:46;99991.84;;;7.90;100.00
24825;BME280;12910;57.690;11.974;2022-09-30T00:37:11;99989.22;;;7.86;100.00
24825;BME280;12910;57.690;11.974;2022-09-30T00:39:39;99983.28;;;7.87;100.00
24825;BME280;12910;57.690;11.974;2022-09-30T00:42:09;99995.22;;;7.88;100.00
24825;BME280;12910;57.690;11.974;2022-09-30T00:44:54;99994.41;;;7.90;100.00
24825;BME280;12910;57.690;11.974;2022-09-30T00:47:32;99990.19;;;7.91;100.00
24825;BME280;12910;57.690;11.974;2022-09-30T00:50:32;99989.28;;;7.89;100.00
24825;BME280;12910;57.690;11.974;2022-09-30T00:58:11;99999.41;;;7.83;100.00
24825;BME280;12910;57.690;11.974;2022-09-30T01:00:39;99997.63;;;7.78;100.00
24825;BME280;12910;57.690;11.974;2022-09-30T01:03:05;99997.59;;;7.77;100.00
24825;BME280;12910;57.690;11.974;2022-09-30T01:05:32;99994.13;;;7.73;100.00
24825;BME280;12910;57.690;11.974;2022-09-30T01:07:59;100005.19;;;7.72;100.00
24825;BME280;12910;57.690;11.974;2022-09-30T01:10:26;99993.13;;;7.65;100.00
24825;BME280;12910;57.690;11.974;2022-09-30T01:12:51;99997.38;;;7.66;100.00
24825;BME280;12910;57.690;11.974;2022-09-30T01:15:20;99992.28;;;7.66;100.00
24825;BME280;12910;57.690;11.974;2022-09-30T01:17:56;99999.19;;;7.70;100.00
24825;BME280;12910;57.690;11.974;2022-09-30T01:26:03;99998.09;;;7.57;100.00
24825;BME280;12910;57.690;11.974;2022-09-30T01:34:32;100001.47;;;7.55;100.00
24825;BME280;12910;57.690;11.974;2022-09-30T01:37:08;99999.75;;;7.54;100.00
24825;BME280;12910;57.690;11.974;2022-09-30T01:45:40;99997.13;;;7.51;100.00
24825;BME280;12910;57.690;11.974;2022-09-30T01:56:46;100000.56;;;7.53;100.00
24825;BME280;12910;57.690;11.974;2022-09-30T01:59:18;100006.50;;;7.52;100.00
24825;BME280;12910;57.690;11.974;2022-09-30T02:01:57;100015.00;;;7.52;100.00
24825;BME280;12910;57.690;11.974;2022-09-30T02:04:31;100015.00;;;7.52;100.00
24825;BME280;12910;57.690;11.974;2022-09-30T02:07:06;100003.13;;;7.53;100.00
24825;BME280;12910;57.690;11.974;2022-09-30T02:09:48;99996.28;;;7.50;100.00
24825;BME280;12910;57.690;11.974;2022-09-30T02:12:19;99997.19;;;7.54;100.00
24825;BME280;12910;57.690;11.974;2022-09-30T02:14:52;99998.91;;;7.55;100.00
24825;BME280;12910;57.690;11.974;2022-09-30T02:17:31;100000.56;;;7.53;100.00
24825;BME280;12910;57.690;11.974;2022-09-30T02:20:02;100001.19;;;7.41;100.00
24825;BME280;12910;57.690;11.974;2022-09-30T02:22:39;100012.16;;;7.35;100.00
24825;BME280;12910;57.690;11.974;2022-09-30T02:25:11;100013.00;;;7.37;100.00
24825;BME280;12910;57.690;11.974;2022-09-30T02:27:48;100001.97;;;7.38;100.00
24825;BME280;12910;57.690;11.974;2022-09-30T02:30:16;100003.78;;;7.42;100.00
24825;BME280;12910;57.690;11.974;2022-09-30T02:32:51;100013.97;;;7.42;100.00
24825;BME280;12910;57.690;11.974;2022-09-30T02:37:48;100010.47;;;7.37;100.00
24825;BME280;12910;57.690;11.974;2022-09-30T02:40:28;100015.63;;;7.40;100.00
24825;BME280;12910;57.690;11.974;2022-09-30T02:42:56;100007.16;;;7.41;100.00
24825;BME280;12910;57.690;11.974;2022-09-30T02:45:22;100018.19;;;7.42;100.00
24825;BME280;12910;57.690;11.974;2022-09-30T02:50:47;100005.44;;;7.40;100.00
24825;BME280;12910;57.690;11.974;2022-09-30T02:58:17;100012.31;;;7.44;100.00
24825;BME280;12910;57.690;11.974;2022-09-30T03:00:44;100002.03;;;7.40;100.00
24825;BME280;12910;57.690;11.974;2022-09-30T03:03:36;100015.81;;;7.49;100.00
24825;BME280;12910;57.690;11.974;2022-09-30T03:05:59;100012.31;;;7.44;100.00
24825;BME280;12910;57.690;11.974;2022-09-30T03:08:25;100012.19;;;7.38;100.00
24825;BME280;12910;57.690;11.974;2022-09-30T03:10:51;100024.22;;;7.45;100.00
24825;BME280;12910;57.690;11.974;2022-09-30T03:19:31;100027.56;;;7.43;100.00
24825;BME280;12910;57.690;11.974;2022-09-30T03:32:51;100035.00;;;7.32;100.00
24825;BME280;12910;57.690;11.974;2022-09-30T03:35:42;100037.63;;;7.35;100.00
24825;BME280;12910;57.690;11.974;2022-09-30T03:41:15;100050.38;;;7.35;100.00
24825;BME280;12910;57.690;11.974;2022-09-30T03:46:50;100051.97;;;7.30;100.00
24825;BME280;12910;57.690;11.974;2022-09-30T03:49:22;100057.97;;;7.32;100.00
24825;BME280;12910;57.690;11.974;2022-09-30T03:51:48;100059.44;;;7.22;100.00
24825;BME280;12910;57.690;11.974;2022-09-30T03:54:14;100061.25;;;7.28;100.00
24825;BME280;12910;57.690;11.974;2022-09-30T03:56:40;100057.78;;;7.24;100.00
24825;BME280;12910;57.690;11.974;2022-09-30T03:59:18;100065.59;;;7.32;100.00
24825;BME280;12910;57.690;11.974;2022-09-30T04:01:46;100070.78;;;7.35;100.00
24825;BME280;12910;57.690;11.974;2022-09-30T04:04:12;100081.09;;;7.41;100.00
24825;BME280;12910;57.690;11.974;2022-09-30T04:06:37;100079.47;;;7.45;100.00
24825;BME280;12910;57.690;11.974;2022-09-30T04:09:02;100083.81;;;7.49;100.00
24825;BME280;12910;57.690;11.974;2022-09-30T04:11:28;100079.53;;;7.48;100.00
24825;BME280;12910;57.690;11.974;2022-09-30T04:13:53;100085.63;;;7.55;100.00
24825;BME280;12910;57.690;11.974;2022-09-30T04:16:19;100095.84;;;7.58;100.00
24825;BME280;12910;57.690;11.974;2022-09-30T04:18:44;100086.47;;;7.55;100.00
24825;BME280;12910;57.690;11.974;2022-09-30T04:21:12;100092.38;;;7.54;100.00
24825;BME280;12910;57.690;11.974;2022-09-30T04:23:39;100085.44;;;7.47;100.00
24825;BME280;12910;57.690;11.974;2022-09-30T04:26:06;100077.06;;;7.53;100.00
24825;BME280;12910;57.690;11.974;2022-09-30T04:28:33;100088.28;;;7.61;100.00
24825;BME280;12910;57.690;11.974;2022-09-30T04:30:59;100084.84;;;7.60;100.00
24825;BME280;12910;57.690;11.974;2022-09-30T04:33:25;100091.72;;;7.63;100.00
24825;BME280;12910;57.690;11.974;2022-09-30T04:35:57;100083.19;;;7.62;100.00
24825;BME280;12910;57.690;11.974;2022-09-30T04:38:24;100081.59;;;7.68;100.00
24825;BME280;12910;57.690;11.974;2022-09-30T04:40:51;100085.91;;;7.70;100.00
24825;BME280;12910;57.690;11.974;2022-09-30T04:43:17;100080.81;;;7.70;100.00
24825;BME280;12910;57.690;11.974;2022-09-30T04:45:44;100088.53;;;7.73;100.00
24825;BME280;12910;57.690;11.974;2022-09-30T04:48:11;100085.09;;;7.73;100.00
24825;BME280;12910;57.690;11.974;2022-09-30T04:50:38;100080.69;;;7.64;100.00
24825;BME280;12910;57.690;11.974;2022-09-30T04:53:03;100080.53;;;7.56;100.00
24825;BME280;12910;57.690;11.974;2022-09-30T04:55:29;100087.28;;;7.54;100.00
24825;BME280;12910;57.690;11.974;2022-09-30T04:57:54;100090.75;;;7.58;100.00
24825;BME280;12910;57.690;11.974;2022-09-30T05:00:20;100096.75;;;7.60;100.00
24825;BME280;12910;57.690;11.974;2022-09-30T05:02:45;100097.56;;;7.59;100.00
24825;BME280;12910;57.690;11.974;2022-09-30T05:05:12;100100.16;;;7.60;100.00
24825;BME280;12910;57.690;11.974;2022-09-30T05:07:37;100104.47;;;7.63;100.00
24825;BME280;12910;57.690;11.974;2022-09-30T05:10:03;100101.94;;;7.63;100.00
24825;BME280;12910;57.690;11.974;2022-09-30T05:12:29;100095.09;;;7.62;100.00
24825;BME280;12910;57.690;11.974;2022-09-30T05:14:55;100105.31;;;7.63;100.00
24825;BME280;12910;57.690;11.974;2022-09-30T05:17:20;100087.31;;;7.56;100.00
24825;BME280;12910;57.690;11.974;2022-09-30T05:19:46;100090.91;;;7.64;100.00
24825;BME280;12910;57.690;11.974;2022-09-30T05:22:11;100090.81;;;7.61;100.00
24825;BME280;12910;57.690;11.974;2022-09-30T05:24:38;100098.50;;;7.62;100.00
24825;BME280;12910;57.690;11.974;2022-09-30T05:27:03;100087.38;;;7.59;100.00
24825;BME280;12910;57.690;11.974;2022-09-30T05:29:29;100096.03;;;7.67;100.00
24825;BME280;12910;57.690;11.974;2022-09-30T05:31:54;100096.00;;;7.64;100.00
24825;BME280;12910;57.690;11.974;2022-09-30T05:34:19;100101.13;;;7.67;100.00
24825;BME280;12910;57.690;11.974;2022-09-30T05:36:45;100099.41;;;7.66;100.00
24825;BME280;12910;57.690;11.974;2022-09-30T05:39:11;100106.19;;;7.64;100.00
24825;BME280;12910;57.690;11.974;2022-09-30T05:41:36;100100.25;;;7.65;100.00
24825;BME280;12910;57.690;11.974;2022-09-30T05:44:02;100108.78;;;7.67;100.00
24825;BME280;12910;57.690;11.974;2022-09-30T05:46:28;100107.13;;;7.68;100.00
24825;BME280;12910;57.690;11.974;2022-09-30T05:48:54;100107.22;;;7.74;100.00
24825;BME280;12910;57.690;11.974;2022-09-30T05:51:19;100103.03;;;7.77;100.00
24825;BME280;12910;57.690;11.974;2022-09-30T05:53:45;100097.97;;;7.79;100.00
24825;BME280;12910;57.690;11.974;2022-09-30T05:56:11;100089.38;;;7.75;100.00
24825;BME280;12910;57.690;11.974;2022-09-30T05:58:37;100085.09;;;7.73;100.00
24825;BME280;12910;57.690;11.974;2022-09-30T06:01:06;100086.88;;;7.77;100.00
24825;BME280;12910;57.690;11.974;2022-09-30T06:03:33;100082.56;;;7.74;100.00
24825;BME280;12910;57.690;11.974;2022-09-30T06:05:59;100095.38;;;7.76;100.00
24825;BME280;12910;57.690;11.974;2022-09-30T06:08:24;100080.72;;;7.67;100.00
24825;BME280;12910;57.690;11.974;2022-09-30T06:10:50;100093.63;;;7.73;100.00
24825;BME280;12910;57.690;11.974;2022-09-30T06:13:15;100099.69;;;7.80;100.00
24825;BME280;12910;57.690;11.974;2022-09-30T06:15:42;100092.97;;;7.84;100.00
24825;BME280;12910;57.690;11.974;2022-09-30T06:18:08;100090.41;;;7.84;100.00
24825;BME280;12910;57.690;11.974;2022-09-30T06:20:34;100098.19;;;7.90;100.00
24825;BME280;12910;57.690;11.974;2022-09-30T06:23:00;100092.19;;;7.89;100.00
24825;BME280;12910;57.690;11.974;2022-09-30T06:25:27;100088.88;;;7.92;100.00
24825;BME280;12910;57.690;11.974;2022-09-30T06:27:53;100097.47;;;7.99;100.00
24825;BME280;12910;57.690;11.974;2022-09-30T06:30:18;100088.97;;;8.00;100.00
24825;BME280;12910;57.690;11.974;2022-09-30T06:32:44;100084.75;;;8.00;100.00
24825;BME280;12910;57.690;11.974;2022-09-30T06:35:10;100091.59;;;8.03;100.00
24825;BME280;12910;57.690;11.974;2022-09-30T06:37:36;100087.38;;;8.05;100.00
24825;BME280;12910;57.690;11.974;2022-09-30T06:40:03;100088.28;;;8.08;100.00
24825;BME280;12910;57.690;11.974;2022-09-30T06:42:28;100098.66;;;8.18;100.00
24825;BME280;12910;57.690;11.974;2022-09-30T06:44:54;100098.75;;;8.24;100.00
24825;BME280;12910;57.690;11.974;2022-09-30T06:47:20;100087.63;;;8.19;100.00
24825;BME280;12910;57.690;11.974;2022-09-30T06:49:45;100091.94;;;8.23;100.00
24825;BME280;12910;57.690;11.974;2022-09-30T06:52:10;100098.00;;;8.30;100.00
24825;BME280;12910;57.690;11.974;2022-09-30T06:54:38;100093.78;;;8.30;100.00
24825;BME280;12910;57.690;11.974;2022-09-30T06:57:04;100078.41;;;8.29;100.00
24825;BME280;12910;57.690;11.974;2022-09-30T06:59:29;100084.50;;;8.35;100.00
24825;BME280;12910;57.690;11.974;2022-09-30T07:01:55;100078.56;;;8.38;100.00
24825;BME280;12910;57.690;11.974;2022-09-30T07:04:20;100065.72;;;8.33;100.00
24825;BME280;12910;57.690;11.974;2022-09-30T07:06:46;100069.31;;;8.43;100.00
24825;BME280;12910;57.690;11.974;2022-09-30T07:09:11;100064.31;;;8.48;100.00
24825;BME280;12910;57.690;11.974;2022-09-30T07:11:37;100067.75;;;8.51;100.00
24825;BME280;12910;57.690;11.974;2022-09-30T07:14:04;100069.53;;;8.55;100.00
24825;BME280;12910;57.690;11.974;2022-09-30T07:16:30;100056.84;;;8.60;100.00
24825;BME280;12910;57.690;11.974;2022-09-30T07:19:02;100063.69;;;8.63;100.00
24825;BME280;12910;57.690;11.974;2022-09-30T07:21:28;100060.34;;;8.68;100.00
24825;BME280;12910;57.690;11.974;2022-09-30T07:23:54;100050.16;;;8.71;100.00
24825;BME280;12910;57.690;11.974;2022-09-30T07:26:22;100048.56;;;8.77;100.00
24825;BME280;12910;57.690;11.974;2022-09-30T07:28:48;100040.13;;;8.82;100.00
24825;BME280;12910;57.690;11.974;2022-09-30T07:31:15;100047.84;;;8.88;100.00
24825;BME280;12910;57.690;11.974;2022-09-30T07:33:42;100052.16;;;8.91;100.00
24825;BME280;12910;57.690;11.974;2022-09-30T07:36:08;100049.63;;;8.94;100.00
24825;BME280;12910;57.690;11.974;2022-09-30T07:38:37;100055.66;;;8.99;100.00
24825;BME280;12910;57.690;11.974;2022-09-30T07:41:06;100061.72;;;9.06;100.00
24825;BME280;12910;57.690;11.974;2022-09-30T07:43:34;100060.94;;;9.09;100.00
24825;BME280;12910;57.690;11.974;2022-09-30T07:46:32;100059.22;;;9.11;100.00
24825;BME280;12910;57.690;11.974;2022-09-30T07:48:59;100060.09;;;9.11;100.00
24825;BME280;12910;57.690;11.974;2022-09-30T07:51:34;100064.34;;;9.11;100.00
24825;BME280;12910;57.690;11.974;2022-09-30T07:54:06;100060.94;;;9.12;100.00
24825;BME280;12910;57.690;11.974;2022-09-30T07:56:33;100065.16;;;9.10;100.00
24825;BME280;12910;57.690;11.974;2022-09-30T07:59:00;100058.38;;;9.10;100.00
24825;BME280;12910;57.690;11.974;2022-09-30T08:01:27;100060.06;;;9.10;100.00
24825;BME280;12910;57.690;11.974;2022-09-30T08:03:55;100060.94;;;9.09;100.00
24825;BME280;12910;57.690;11.974;2022-09-30T08:06:22;100062.63;;;9.10;100.00
24825;BME280;12910;57.690;11.974;2022-09-30T08:08:50;100061.81;;;9.12;100.00
24825;BME280;12910;57.690;11.974;2022-09-30T08:11:15;100046.44;;;9.11;100.00
24825;BME280;12910;57.690;11.974;2022-09-30T08:13:41;100056.72;;;9.15;100.00
24825;BME280;12910;57.690;11.974;2022-09-30T08:16:07;100066.28;;;9.27;100.00
24825;BME280;12910;57.690;11.974;2022-09-30T08:18:32;100069.72;;;9.32;100.00
24825;BME280;12910;57.690;11.974;2022-09-30T08:21:05;100060.34;;;9.33;100.00
24825;BME280;12910;57.690;11.974;2022-09-30T08:23:31;100060.34;;;9.33;100.00
24825;BME280;12910;57.690;11.974;2022-09-30T08:26:05;100071.50;;;9.38;100.00
24825;BME280;12910;57.690;11.974;2022-09-30T08:28:31;100080.06;;;9.42;100.00
24825;BME280;12910;57.690;11.974;2022-09-30T08:31:04;100072.44;;;9.46;100.00
24825;BME280;12910;57.690;11.974;2022-09-30T08:33:30;100066.56;;;9.52;100.00
24825;BME280;12910;57.690;11.974;2022-09-30T08:35:56;100057.19;;;9.54;100.00
24825;BME280;12910;57.690;11.974;2022-09-30T08:38:25;100064.09;;;9.60;100.00
24825;BME280;12910;57.690;11.974;2022-09-30T08:46:44;100054.03;;;9.78;100.00
24825;BME280;12910;57.690;11.974;2022-09-30T08:52:01;100051.50;;;9.80;100.00
24825;BME280;12910;57.690;11.974;2022-09-30T08:54:32;100064.44;;;9.94;100.00
24825;BME280;12910;57.690;11.974;2022-09-30T08:57:00;100065.34;;;10.01;100.00
24825;BME280;12910;57.690;11.974;2022-09-30T08:59:47;100069.72;;;10.09;100.00
24825;BME280;12910;57.690;11.974;2022-09-30T09:02:26;100068.91;;;10.17;100.00
24825;BME280;12910;57.690;11.974;2022-09-30T09:04:58;100048.44;;;10.17;100.00
24825;BME280;12910;57.690;11.974;2022-09-30T09:18:55;100048.69;;;10.46;100.00
24825;BME280;12910;57.690;11.974;2022-09-30T09:21:51;100041.94;;;10.56;100.00
24825;BME280;12910;57.690;11.974;2022-09-30T09:27:18;100043.69;;;10.62;100.00
24825;BME280;12910;57.690;11.974;2022-09-30T09:30:03;100036.81;;;10.59;100.00
24825;BME280;12910;57.690;11.974;2022-09-30T09:32:31;100037.75;;;10.67;100.00
24825;BME280;12910;57.690;11.974;2022-09-30T09:35:08;100033.47;;;10.74;100.00
24825;BME280;12910;57.690;11.974;2022-09-30T09:37:55;100024.09;;;10.78;100.00
24825;BME280;12910;57.690;11.974;2022-09-30T09:43:29;100029.25;;;10.82;100.00
24825;BME280;12910;57.690;11.974;2022-09-30T09:46:14;100025.88;;;10.86;100.00
24825;BME280;12910;57.690;11.974;2022-09-30T09:48:42;100019.94;;;10.97;100.00
24825;BME280;12910;57.690;11.974;2022-09-30T09:56:18;100003.75;;;11.09;100.00
24825;BME280;12910;57.690;11.974;2022-09-30T10:01:31;99996.94;;;11.15;100.00
24825;BME280;12910;57.690;11.974;2022-09-30T10:04:12;100002.97;;;11.27;100.00
24825;BME280;12910;57.690;11.974;2022-09-30T10:06:46;100008.09;;;11.33;100.00
24825;BME280;12910;57.690;11.974;2022-09-30T10:09:30;99997.88;;;11.36;100.00
24825;BME280;12910;57.690;11.974;2022-09-30T10:14:37;99999.56;;;11.40;100.00
24825;BME280;12910;57.690;11.974;2022-09-30T10:17:21;99997.88;;;11.42;100.00
24825;BME280;12910;57.690;11.974;2022-09-30T10:19:56;99997.03;;;11.46;100.00
24825;BME280;12910;57.690;11.974;2022-09-30T10:22:30;99999.63;;;11.51;100.00
24825;BME280;12910;57.690;11.974;2022-09-30T10:25:25;99991.06;;;11.60;100.00
24825;BME280;12910;57.690;11.974;2022-09-30T10:28:02;99987.66;;;11.67;100.00
24825;BME280;12910;57.690;11.974;2022-09-30T10:33:13;99985.94;;;11.72;100.00
24825;BME280;12910;57.690;11.974;2022-09-30T10:35:53;99981.69;;;11.74;100.00
24825;BME280;12910;57.690;11.974;2022-09-30T10:38:20;99963.69;;;11.71;100.00
24825;BME280;12910;57.690;11.974;2022-09-30T10:40:48;99978.25;;;11.81;100.00
24825;BME280;12910;57.690;11.974;2022-09-30T10:43:30;99971.41;;;11.90;100.00
24825;BME280;12910;57.690;11.974;2022-09-30T10:45:57;99966.28;;;11.90;100.00
24825;BME280;12910;57.690;11.974;2022-09-30T10:48:30;99961.16;;;11.93;100.00
24825;BME280;12910;57.690;11.974;2022-09-30T10:50:57;99972.28;;;11.98;100.00
24825;BME280;12910;57.690;11.974;2022-09-30T10:53:28;99974.03;;;12.05;100.00
24825;BME280;12910;57.690;11.974;2022-09-30T10:55:55;99968.03;;;12.11;100.00
24825;BME280;12910;57.690;11.974;2022-09-30T11:01:24;99977.41;;;12.37;100.00
24825;BME280;12910;57.690;11.974;2022-09-30T11:06:37;99961.97;;;12.51;100.00
24825;BME280;12910;57.690;11.974;2022-09-30T11:12:07;99971.38;;;12.55;100.00
24825;BME280;12910;57.690;11.974;2022-09-30T11:14:41;99974.81;;;12.47;100.00
24825;BME280;12910;57.690;11.974;2022-09-30T11:17:24;99968.84;;;12.42;100.00
24825;BME280;12910;57.690;11.974;2022-09-30T11:20:00;99972.28;;;12.40;100.00
24825;BME280;12910;57.690;11.974;2022-09-30T11:28:10;99960.25;;;12.53;100.00
24825;BME280;12910;57.690;11.974;2022-09-30T11:31:03;99953.41;;;12.52;100.00
24825;BME280;12910;57.690;11.974;2022-09-30T11:33:42;99959.38;;;12.55;100.00
24825;BME280;12910;57.690;11.974;2022-09-30T11:41:25;99941.41;;;12.47;100.00
24825;BME280;12910;57.690;11.974;2022-09-30T11:51:39;99941.38;;;12.52;100.00
24825;BME280;12910;57.690;11.974;2022-09-30T11:57:13;99942.28;;;12.40;100.00
24825;BME280;12910;57.690;11.974;2022-09-30T11:59:52;99938.00;;;12.36;100.00
24825;BME280;12910;57.690;11.974;2022-09-30T12:07:45;99938.88;;;12.27;100.00
24825;BME280;12910;57.690;11.974;2022-09-30T12:10:40;99931.19;;;12.23;100.00
24825;BME280;12910;57.690;11.974;2022-09-30T12:13:15;99936.31;;;12.26;100.00
24825;BME280;12910;57.690;11.974;2022-09-30T12:15:44;99936.31;;;12.30;100.00
24825;BME280;12910;57.690;11.974;2022-09-30T12:18:13;99925.19;;;12.28;100.00
24825;BME280;12910;57.690;11.974;2022-09-30T12:20:46;99931.16;;;12.29;100.00
24825;BME280;12910;57.690;11.974;2022-09-30T12:25:46;99941.44;;;12.29;100.00
24825;BME280;12910;57.690;11.974;2022-09-30T12:42:14;99908.88;;;12.37;100.00
24825;BME280;12910;57.690;11.974;2022-09-30T12:47:37;99909.72;;;12.44;100.00
24825;BME280;12910;57.690;11.974;2022-09-30T12:50:12;99907.13;;;12.41;100.00
24825;BME280;12910;57.690;11.974;2022-09-30T12:52:39;99912.28;;;12.39;100.00
24825;BME280;12910;57.690;11.974;2022-09-30T12:55:20;99899.47;;;12.33;100.00
24825;BME280;12910;57.690;11.974;2022-09-30T12:57:47;99888.38;;;12.25;100.00
24825;BME280;12910;57.690;11.974;2022-09-30T13:00:27;99899.50;;;12.21;100.00
24825;BME280;12910;57.690;11.974;2022-09-30T13:03:05;99901.22;;;12.15;100.00
24825;BME280;12910;57.690;11.974;2022-09-30T13:13:20;99903.78;;;11.94;100.00
24825;BME280;12910;57.690;11.974;2022-09-30T13:15:48;99897.81;;;11.92;100.00
24825;BME280;12910;57.690;11.974;2022-09-30T13:26:30;99913.19;;;11.79;100.00
24825;BME280;12910;57.690;11.974;2022-09-30T13:41:57;99896.94;;;11.90;100.00
24825;BME280;12910;57.690;11.974;2022-09-30T13:47:31;99890.97;;;11.98;100.00
24825;BME280;12910;57.690;11.974;2022-09-30T13:52:56;99888.38;;;12.09;100.00
24825;BME280;12910;57.690;11.974;2022-09-30T13:55:32;99893.53;;;12.09;100.00
24825;BME280;12910;57.690;11.974;2022-09-30T14:00:57;99884.97;;;12.13;100.00
24825;BME280;12910;57.690;11.974;2022-09-30T14:06:16;99890.06;;;12.20;100.00
24825;BME280;12910;57.690;11.974;2022-09-30T14:09:10;99882.38;;;12.20;100.00
24825;BME280;12910;57.690;11.974;2022-09-30T14:16:52;99874.66;;;12.26;100.00
24825;BME280;12910;57.690;11.974;2022-09-30T14:22:05;99874.66;;;12.30;100.00
24825;BME280;12910;57.690;11.974;2022-09-30T14:24:34;99869.50;;;12.29;100.00
24825;BME280;12910;57.690;11.974;2022-09-30T14:32:27;99852.34;;;12.37;100.00
24825;BME280;12910;57.690;11.974;2022-09-30T14:34:54;99834.38;;;12.34;100.00
24825;BME280;12910;57.690;11.974;2022-09-30T14:37:31;99836.06;;;12.34;100.00
24825;BME280;12910;57.690;11.974;2022-09-30T14:40:00;99832.66;;;12.30;100.00
24825;BME280;12910;57.690;11.974;2022-09-30T14:44:55;99819.81;;;12.30;100.00
24825;BME280;12910;57.690;11.974;2022-09-30T14:47:37;99819.81;;;12.27;100.00
24825;BME280;12910;57.690;11.974;2022-09-30T14:50:13;99828.41;;;12.23;100.00
24825;BME280;12910;57.690;11.974;2022-09-30T14:52:46;99815.63;;;12.04;100.00
24825;BME280;12910;57.690;11.974;2022-09-30T14:55:20;99818.19;;;12.07;100.00
24825;BME280;12910;57.690;11.974;2022-09-30T14:57:55;99802.81;;;11.99;100.00
24825;BME280;12910;57.690;11.974;2022-09-30T15:00:37;99821.63;;;12.00;100.00
24825;BME280;12910;57.690;11.974;2022-09-30T15:03:09;99822.47;;;12.02;100.00
24825;BME280;12910;57.690;11.974;2022-09-30T15:05:36;99820.75;;;11.96;100.00
24825;BME280;12910;57.690;11.974;2022-09-30T15:08:01;99821.63;;;11.97;100.00
24825;BME280;12910;57.690;11.974;2022-09-30T15:10:27;99821.63;;;11.97;100.00
24825;BME280;12910;57.690;11.974;2022-09-30T15:12:53;99823.34;;;11.98;100.00
24825;BME280;12910;57.690;11.974;2022-09-30T15:15:27;99813.94;;;12.02;100.00
24825;BME280;12910;57.690;11.974;2022-09-30T15:17:56;99815.66;;;11.99;100.00
24825;BME280;12910;57.690;11.974;2022-09-30T15:20:33;99818.19;;;12.04;100.00
24825;BME280;12910;57.690;11.974;2022-09-30T15:23:14;99819.91;;;12.05;100.00
24825;BME280;12910;57.690;11.974;2022-09-30T15:25:41;99804.50;;;12.02;100.00
24825;BME280;12910;57.690;11.974;2022-09-30T15:28:10;99804.50;;;12.05;100.00
24825;BME280;12910;57.690;11.974;2022-09-30T15:30:36;99812.19;;;12.08;100.00
24825;BME280;12910;57.690;11.974;2022-09-30T15:33:03;99793.41;;;12.02;100.00
24825;BME280;12910;57.690;11.974;2022-09-30T15:35:31;99806.22;;;12.03;100.00
24825;BME280;12910;57.690;11.974;2022-09-30T15:38:18;99795.94;;;12.00;100.00
24825;BME280;12910;57.690;11.974;2022-09-30T15:40:47;99797.63;;;11.96;100.00
24825;BME280;12910;57.690;11.974;2022-09-30T15:43:30;99809.66;;;11.97;100.00
24825;BME280;12910;57.690;11.974;2022-09-30T15:48:40;99795.06;;;11.93;100.00
24825;BME280;12910;57.690;11.974;2022-09-30T15:53:55;99804.50;;;11.91;100.00
24825;BME280;12910;57.690;11.974;2022-09-30T15:56:35;99813.09;;;11.85;100.00
24825;BME280;12910;57.690;11.974;2022-09-30T16:01:49;99804.56;;;11.73;100.00
24825;BME280;12910;57.690;11.974;2022-09-30T16:06:49;99833.66;;;11.76;100.00
24825;BME280;12910;57.690;11.974;2022-09-30T16:09:22;99832.78;;;11.73;100.00
24825;BME280;12910;57.690;11.974;2022-09-30T16:11:56;99835.38;;;11.68;100.00
24825;BME280;12910;57.690;11.974;2022-09-30T16:14:25;99826.78;;;11.55;100.00
24825;BME280;12910;57.690;11.974;2022-09-30T16:16:53;99828.53;;;11.58;100.00
24825;BME280;12910;57.690;11.974;2022-09-30T16:19:20;99831.09;;;11.54;100.00
24825;BME280;12910;57.690;11.974;2022-09-30T16:21:47;99838.78;;;11.51;100.00
24825;BME280;12910;57.690;11.974;2022-09-30T16:26:51;99834.50;;;11.44;100.00
24825;BME280;12910;57.690;11.974;2022-09-30T16:29:16;99840.47;;;11.40;100.00
24825;BME280;12910;57.690;11.974;2022-09-30T16:31:43;99840.47;;;11.40;100.00
24825;BME280;12910;57.690;11.974;2022-09-30T16:34:28;99825.13;;;11.37;100.00
24825;BME280;12910;57.690;11.974;2022-09-30T16:37:04;99831.09;;;11.36;100.00
24825;BME280;12910;57.690;11.974;2022-09-30T16:39:35;99833.66;;;11.31;100.00
24825;BME280;12910;57.690;11.974;2022-09-30T16:42:00;99845.63;;;11.23;100.00
24825;BME280;12910;57.690;11.974;2022-09-30T16:44:29;99843.03;;;11.26;100.00